Frankston, Victoria

2:08 AM AEDT on February 08, 2016 (GMT +1100)
Frankston South | | Change Station
CLOSE
Current Station
Personal Weather Station
Location: Frankston South, VIC
Elevation: 190 ft
Nearby Weather Stations

Elev 190 ft 38.16 °S, 145.12 °E | Updated 3 seconds ago

Overcast
Overcast
62.2 °F
Feels Like 62.2 °F
N
0.0
Wind Variable Wind from South
Gusts 0.0 mph

Today
High -- | Low -- °F
--% Chance of Precip.
Yesterday
High -- | Low -- °F
Precip. -- in
Pressure 30.12 in
Visibility -9999.0 miles
Clouds Overcast 1800 ft
Dew Point 59 °F
Humidity 89%
Rainfall 0.00 in
Snow Depth Not available.
6:39 AM 8:27 PM
Waning Crescent, 1% visible
SPECI YMEN 071456Z AUTO 22010KT //// // OVC018 19/16 Q1020
Pressure 30.12 in
Visibility -9999.0 miles
Clouds Overcast 1800 ft
Dew Point 59 °F
Humidity 89%
Rainfall 0.00 in
Snow Depth Not available.
6:39 AM 8:27 PM
Waning Crescent, 1% visible
SPECI YMEN 071456Z AUTO 22010KT //// // OVC018 19/16 Q1020

10-Day Weather Forecast

Almanac

Astronomy

Feb. 08, 2016 Rise Set
Actual Time
Civil Twilight
Nautical Twilight
Astronomical Twilight
Moon
Length of Visible Light
Length of Day
Tomorrow will be .
, % of the Moon is Illuminated

Today's Extremes

Country Highs Country Lows

Community

WunderPhotos

Upload Photos

1,891,211 photos uploaded!

WunderBlog® & News

Nearby

Air Quality

  Air Quality AQ Index Pollutant
Not available.

Snow Depth

Station Depth Elevation

Earthquake Activity

City Distance Mag. Time & Date
Minimum magnitude displayed is 2.5.

Coastal Water Temperatures

Place Temperature

Stations

Nearby Weather Stations

Station Location Temp. Windchill Dew Point Humidity Wind Precip. Elev Updated Type